EVRAEEKE

Guest
Details From EVRA - Riga Intl
To EEKE - KURESSAARE
Flight Number -
Tags generated
Created
Modified
Stats Distance 91 nm / 169 km
Max Altitude 0 ft / 0 m
Waypoints 3
Social Downloads 10
Likes 0
Share VATSIM

Download

Looking for another format? Having issues loading an existing format? Contact us
Advertisement - Login to hide

Notes

Basic altitude profile: - Ascent Rate: 2500ft/min - Ascent Speed: 250kts - Cruise Altitude: 35000ft - Cruise Speed: 420kts - Descent Rate: 1500ft/min - Descent Speed: 250kts

Route

EVRA KRS EEKE

ID Type Via Altitude Latitude Longitude Leg Dist Tot Dist Heading (true) Name
O EVRA APT - 0 ft / 0 m 56.92366˚ 23.97119˚ - 0 nm - Riga Intl
KRS VOR - 0 ft / 0 m 58.22833˚ 22.51536˚ 91 nm 91 nm 330° / 328° KURESSAARE VOR-DME
O EEKE APT - 0 ft / 0 m 58.23046˚ 22.51124˚ 0 nm 91 nm 314° / 314° KURESSAARE

Altitude Profile

Advertisement - Login to hide

EVRA

Details ICAO EVRA (RIX)
Name Riga Intl
Region Latvia
Timezone Europe/Riga (UTC+2.0)
Stats Elevation 34 ft / 10 m (AMSL)
Location 56.923662° 23.971193°
Runways 1
Magnetic Variation 7.657° E

METAR

EVRA 171620Z 22005KT 8000 OVC003 M00/M00 Q1015 R18/190095 NOSIG

Decode

TAF

TAF TAF EVRA 171414Z 1715/1815 22005KT 3000 BR OVC002 TEMPO 1715/1809 0700 -SN FZFG OVC001 PROB40 TEMPO 1715/1721 -FZDZ BECMG 1809/1811 6000 NSW OVC005 TEMPO 1811/1815 3000 BR OVC002

Decode

Departure Runways

ID Width Length Bearing (true) Bearing (mag) Surface Threshold Offset Overrun Length
18 148 ft / 45 m 8,358 ft / 2,548 m 185.15° 177.49° Asphalt 0 ft / 0 m 170 ft / 52 m
36 148 ft / 45 m 8,358 ft / 2,548 m 5.14° 357.48° Asphalt 0 ft / 0 m 170 ft / 52 m

EEKE

Details ICAO EEKE (URE)
Name KURESSAARE
Region Estonia
Timezone Europe/Tallinn (UTC+2.0)
Stats Elevation 14 ft / 4 m (AMSL)
Location 58.230459° 22.511240°
Runways 2
Magnetic Variation 7.493° E

METAR

EEKE 171550Z 30004KT 9999 FEW034 BKN042 00/M00 Q1014 R17/290095

Decode

TAF

Not found

Destination Runways

ID Width Length Bearing (true) Bearing (mag) Surface Threshold Offset Overrun Length
05 98 ft / 30 m 2,615 ft / 797 m 58.67° 51.18° Asphalt 0 ft / 0 m 197 ft / 60 m
17 98 ft / 30 m 4,973 ft / 1,516 m 179.57° 172.08° Asphalt 0 ft / 0 m 197 ft / 60 m
23 98 ft / 30 m 2,615 ft / 797 m 238.68° 231.19° Asphalt 0 ft / 0 m 197 ft / 60 m
35 98 ft / 30 m 4,973 ft / 1,516 m 359.58° 352.09° Asphalt 0 ft / 0 m 197 ft / 60 m